Skip Navigation Links
NOAA logo - Click to go to the NOAA homepage
NOAA's National Weather Service
Alaska Aviation Weather Unit
  NWS logo - Click to go to the NWS homepage
Left Navbar Graphic     03 AKDT = 11 GMT

   
NOAA is celebrating 200 years of science, service, and stewardship. Visit the NOAA 200th celebration Web site to learn more.
USA.gov is the U.S. Government's official Web portal to all Federal, state and local government Web resources and services.
Facebook
NWS on Facebook

AAWU Home :: Display TAF Add Bookmark
TAF PAGY 290531Z 2906/3006 04005KT P6SM VCSH BKN050 OVC080
     FM291100 04005KT 5SM -SHRA OVC030
     FM291800 21012KT P6SM -SHRA OVC030
      AMD LTD TO CLD VIS AND WIND=

METAR PAGY 290553Z AUTO 00000KT 10SM OVC070 04/01 A2979 RMK AO2 SLP087 60000 T00440006 10083 20044 51009 TSNO= METAR PAGY 290653Z AUTO 00000KT 10SM BKN065 OVC080 04/01 A2978 RMK AO2 SLP083 T00390006 TSNO= METAR PAGY 290753Z AUTO 00000KT 10SM BKN060 OVC080 03/01 A2978 RMK AO2 SLP084 T00330006 TSNO= SPECI PAGY 290841Z AUTO 00000KT 10SM -RA BKN022 OVC060 03/01 A2979 RMK AO2 RAB40 P0000 T00330006 TSNO= METAR PAGY 290853Z AUTO 00000KT 10SM -RA OVC022 03/01 A2979 RMK AO2 RAB40 SLP087 P0000 60000 T00330006 400830022 53000 TSNO= METAR PAGY 290953Z AUTO 03003KT 10SM SCT016 BKN046 OVC060 03/01 A2978 RMK AO2 RAE0857 SLP086 P0000 T00330006 TSNO= SPECI PAGY 291014Z AUTO 00000KT 10SM BKN018 BKN060 OVC080 03/01 A2978 RMK AO2 T00280006 TSNO= METAR PAGY 291053Z AUTO 00000KT 10SM BKN017 OVC022 03/01 A2978 RMK AO2 SLP083 T00280006 TSNO=
 Alaska TAF Map

NOAA's National Weather Service
Alaska Aviation Weather Unit
6930 Sand Lake Road
Anchorage, AK 99502-1845
Disclaimer
Credits
Glossary
Privacy Policy
About Us
Career Opportunities
Contact AAWU Internet Services Site last modified: April, 17th 2012